Time;durP1;ratioP1;P1;durP2;ratioP2;P2;SDS_P1;SDS_P2;PMS_P1;PMS_P2;Temp;Humidity;BMP_temperature;BMP_pressure;BME280_temperature;BME280_humidity;BME280_pressure;Samples;Min_cycle;Max_cycle;Signal;HPM_P1;HPM_P2
2022/10/07 02:21:32;;;;;;;;;;;13.60;98.70;;;;;;6140047;22;2070347;-81
2022/10/07 02:23:59;;;;;;;;;;;13.60;99.00;;;;;;6185069;23;20372;-79
2022/10/07 02:26:27;;;;;;;;;;;13.60;98.80;;;;;;6199052;23;20330;-80
2022/10/07 02:28:55;;;;;;;;;;;13.60;98.70;;;;;;6187534;23;19951;-79
2022/10/07 02:31:25;;;;;;;;;;;13.60;99.00;;;;;;6188785;23;19951;-79
2022/10/07 02:33:52;;;;;;;;;;;13.60;99.10;;;;;;6188977;23;19920;-80
2022/10/07 02:36:24;;;;;;;;;;;13.60;99.10;;;;;;6188883;23;19921;-79
2022/10/07 02:38:51;;;;;;;;;;;13.50;99.50;;;;;;6189512;23;19983;-79
2022/10/07 02:41:39;;;;;;;;;;;13.50;99.50;;;;;;6186808;23;19920;-79
2022/10/07 02:44:24;;;;;;;;;;;13.50;99.40;;;;;;6191346;23;20405;-79
2022/10/07 02:47:04;;;;;;;;;;;13.50;99.90;;;;;;6195971;23;19960;-79
2022/10/07 02:49:31;;;;;;;;;;;13.50;99.90;;;;;;6190911;23;19920;-79
2022/10/07 02:52:01;;;;;;;;;;;13.40;99.50;;;;;;6189734;23;19944;-79
2022/10/07 02:54:33;;;;;;;;;;;13.40;99.50;;;;;;6186052;23;20348;-79
2022/10/07 02:57:00;;;;;;;;;;;13.40;99.40;;;;;;6185178;23;19991;-80
2022/10/07 02:59:28;;;;;;;;;;;13.30;99.20;;;;;;6183115;23;20244;-79
2022/10/07 03:01:57;;;;;;;;;;;13.30;99.40;;;;;;6188006;23;19920;-79
2022/10/07 03:04:24;;;;;;;;;;;13.30;99.20;;;;;;6186550;23;19987;-79
2022/10/07 03:06:51;;;;;;;;;;;13.20;99.00;;;;;;6188237;23;19920;-79
2022/10/07 03:09:17;;;;;;;;;;;13.20;99.20;;;;;;6187444;23;19996;-79
2022/10/07 03:11:44;;;;;;;;;;;13.20;99.00;;;;;;6191629;23;19927;-80
2022/10/07 03:14:11;;;;;;;;;;;13.10;99.10;;;;;;6190708;23;19920;-79
2022/10/07 03:16:38;;;;;;;;;;;13.10;99.00;;;;;;6193643;23;19921;-79
2022/10/07 03:19:05;;;;;;;;;;;13.10;99.10;;;;;;6195272;23;19920;-79
2022/10/07 03:21:32;;;;;;;;;;;13.00;99.10;;;;;;6186985;23;19920;-79
2022/10/07 03:24:03;;;;;;;;;;;13.00;99.10;;;;;;6192114;23;19950;-80
2022/10/07 03:26:31;;;;;;;;;;;12.90;99.20;;;;;;6191631;23;19943;-79
2022/10/07 03:28:59;;;;;;;;;;;12.90;99.10;;;;;;6192763;23;19995;-79
2022/10/07 03:31:26;;;;;;;;;;;12.90;99.50;;;;;;6189094;23;20256;-79
2022/10/07 03:33:55;;;;;;;;;;;13.00;99.40;;;;;;6191239;23;19991;-80
2022/10/07 03:36:22;;;;;;;;;;;13.00;99.30;;;;;;6202462;23;19951;-79
2022/10/07 03:38:49;;;;;;;;;;;13.00;99.30;;;;;;6190011;23;20256;-79
2022/10/07 03:41:18;;;;;;;;;;;13.00;99.10;;;;;;6187999;23;20252;-79
2022/10/07 03:43:44;;;;;;;;;;;13.00;99.10;;;;;;6189831;23;19940;-79
2022/10/07 03:46:11;;;;;;;;;;;12.90;99.00;;;;;;6202255;23;19991;-79
2022/10/07 03:48:38;;;;;;;;;;;12.70;99.20;;;;;;6192587;23;19987;-79
2022/10/07 03:51:05;;;;;;;;;;;12.70;99.10;;;;;;6192567;23;20311;-79
2022/10/07 03:53:31;;;;;;;;;;;12.70;99.30;;;;;;6192882;23;20241;-79
2022/10/07 03:55:58;;;;;;;;;;;12.70;99.20;;;;;;6194123;23;19964;-79
2022/10/07 03:58:25;;;;;;;;;;;12.60;99.20;;;;;;6190275;23;19954;-79
2022/10/07 04:00:51;;;;;;;;;;;12.60;98.90;;;;;;6190428;23;19999;-79
2022/10/07 04:03:18;;;;;;;;;;;12.50;99.00;;;;;;6191602;23;20302;-80
2022/10/07 04:05:56;;;;;;;;;;;12.40;99.70;;;;;;6216733;23;19920;-79
2022/10/07 04:08:22;;;;;;;;;;;12.40;99.60;;;;;;6225157;23;19927;-79
2022/10/07 04:10:49;;;;;;;;;;;12.40;99.80;;;;;;6209195;23;19932;-80
2022/10/07 04:13:16;;;;;;;;;;;12.40;99.70;;;;;;6195616;23;19944;-79
2022/10/07 04:15:42;;;;;;;;;;;12.40;99.90;;;;;;6197372;23;19995;-79
2022/10/07 04:18:09;;;;;;;;;;;12.40;99.90;;;;;;6196754;23;19955;-79
2022/10/07 04:20:37;;;;;;;;;;;12.40;99.90;;;;;;6194289;23;19943;-79
2022/10/07 04:23:03;;;;;;;;;;;12.40;99.90;;;;;;6194465;23;19928;-79
2022/10/07 04:25:33;;;;;;;;;;;12.30;99.90;;;;;;6192900;23;20337;-79
2022/10/07 04:28:04;;;;;;;;;;;12.30;99.90;;;;;;6213892;23;19935;-79
2022/10/07 04:30:32;;;;;;;;;;;12.30;99.90;;;;;;6197590;23;19921;-79
2022/10/07 04:33:02;;;;;;;;;;;12.30;99.90;;;;;;6195918;23;19920;-79
2022/10/07 04:35:29;;;;;;;;;;;12.20;99.90;;;;;;6192528;23;20409;-79
2022/10/07 04:37:56;;;;;;;;;;;12.20;99.90;;;;;;6216046;23;19943;-79
2022/10/07 04:40:23;;;;;;;;;;;12.20;99.90;;;;;;6195236;23;19948;-79
2022/10/07 04:45:36;;;;;;;;;;;12.30;99.90;;;;;;6205704;23;20248;-78
2022/10/07 04:48:04;;;;;;;;;;;12.30;99.90;;;;;;6194927;23;19966;-79
2022/10/07 04:50:32;;;;;;;;;;;12.20;99.90;;;;;;6186632;23;19920;-79
2022/10/07 04:52:59;;;;;;;;;;;12.30;99.90;;;;;;6188504;23;19926;-79
2022/10/07 04:55:27;;;;;;;;;;;12.30;99.90;;;;;;6187135;23;20253;-79
2022/10/07 04:57:53;;;;;;;;;;;12.30;99.90;;;;;;6208734;23;19948;-79
2022/10/07 05:00:20;;;;;;;;;;;12.30;99.90;;;;;;6190768;23;19960;-79
2022/10/07 05:02:49;;;;;;;;;;;12.30;99.90;;;;;;6187372;23;19920;-79
2022/10/07 05:05:16;;;;;;;;;;;12.30;99.90;;;;;;6186261;23;20300;-79
2022/10/07 05:07:47;;;;;;;;;;;12.30;99.90;;;;;;6188722;23;19947;-79
2022/10/07 05:10:14;;;;;;;;;;;12.30;99.80;;;;;;6200603;23;19955;-80
2022/10/07 05:12:41;;;;;;;;;;;12.30;99.90;;;;;;6187826;23;20359;-79
2022/10/07 05:15:09;;;;;;;;;;;12.30;99.80;;;;;;6190092;23;19995;-79
2022/10/07 05:17:35;;;;;;;;;;;12.20;99.90;;;;;;6187809;23;19924;-79
2022/10/07 05:20:03;;;;;;;;;;;12.10;99.90;;;;;;6187214;23;19964;-79
2022/10/07 05:22:30;;;;;;;;;;;11.90;99.90;;;;;;6187335;23;19999;-79
2022/10/07 05:24:57;;;;;;;;;;;11.90;99.90;;;;;;6189275;23;20238;-79
2022/10/07 05:27:24;;;;;;;;;;;11.90;99.90;;;;;;6185905;23;20257;-79
2022/10/07 05:29:51;;;;;;;;;;;11.90;99.90;;;;;;6209607;23;19955;-80
2022/10/07 05:32:17;;;;;;;;;;;11.80;99.90;;;;;;6191444;23;20300;-80
2022/10/07 05:34:44;;;;;;;;;;;11.80;99.90;;;;;;6207204;23;20295;-79
2022/10/07 05:37:11;;;;;;;;;;;11.80;99.90;;;;;;6192719;23;19995;-79
2022/10/07 05:39:37;;;;;;;;;;;11.70;99.90;;;;;;6184687;23;20020;-79
2022/10/07 05:42:04;;;;;;;;;;;11.70;99.90;;;;;;6187072;23;19944;-79
2022/10/07 05:44:31;;;;;;;;;;;11.70;99.90;;;;;;6186097;23;19995;-79
2022/10/07 05:46:58;;;;;;;;;;;11.80;99.90;;;;;;6189538;23;20410;-79
2022/10/07 05:49:26;;;;;;;;;;;11.80;99.90;;;;;;6187627;23;19920;-79
2022/10/07 05:51:53;;;;;;;;;;;11.90;99.90;;;;;;6207317;23;20001;-79
2022/10/07 05:54:20;;;;;;;;;;;11.90;99.90;;;;;;6191559;23;19927;-79
2022/10/07 05:56:47;;;;;;;;;;;12.00;99.90;;;;;;6201232;23;20261;-79
2022/10/07 05:59:13;;;;;;;;;;;12.00;99.90;;;;;;6199279;23;20028;-79
2022/10/07 06:01:41;;;;;;;;;;;11.90;99.90;;;;;;6187120;23;20364;-79
2022/10/07 06:04:09;;;;;;;;;;;11.90;99.90;;;;;;6210887;23;19920;-79
2022/10/07 06:06:37;;;;;;;;;;;11.90;99.90;;;;;;6186699;23;19995;-79
2022/10/07 06:14:34;;;;;;;;;;;11.90;99.90;;;;;;6188479;23;19920;-79
2022/10/07 06:17:01;;;;;;;;;;;12.00;99.90;;;;;;6196636;23;19924;-79
2022/10/07 06:19:28;;;;;;;;;;;12.00;99.90;;;;;;6185710;23;19927;-79
2022/10/07 06:21:54;;;;;;;;;;;12.10;99.90;;;;;;6188239;23;19960;-79
2022/10/07 06:24:21;;;;;;;;;;;12.10;99.90;;;;;;6190684;23;19924;-79
2022/10/07 06:26:48;;;;;;;;;;;12.10;99.90;;;;;;6188928;23;19951;-79
2022/10/07 06:29:15;;;;;;;;;;;12.10;99.90;;;;;;6190432;23;19924;-79
2022/10/07 06:31:42;;;;;;;;;;;12.10;99.90;;;;;;6188719;23;19999;-79
2022/10/07 06:34:08;;;;;;;;;;;12.00;99.90;;;;;;6209074;23;19987;-79
2022/10/07 06:36:35;;;;;;;;;;;12.10;99.90;;;;;;6192842;23;19929;-79
2022/10/07 06:39:02;;;;;;;;;;;12.20;99.90;;;;;;6189691;23;19943;-79
2022/10/07 06:41:28;;;;;;;;;;;12.30;99.90;;;;;;6189718;23;19927;-80
2022/10/07 06:43:59;;;;;;;;;;;12.40;99.90;;;;;;6208125;23;20007;-79
2022/10/07 06:46:26;;;;;;;;;;;12.50;99.90;;;;;;6193681;23;20337;-79
2022/10/07 06:48:53;;;;;;;;;;;12.70;99.90;;;;;;6199250;23;19999;-79
2022/10/07 06:51:20;;;;;;;;;;;12.90;99.90;;;;;;6186011;23;19927;-79
2022/10/07 06:53:50;;;;;;;;;;;13.00;99.90;;;;;;6186838;23;19948;-79
2022/10/07 06:56:17;;;;;;;;;;;13.10;99.90;;;;;;6187057;23;19927;-79
2022/10/07 06:58:43;;;;;;;;;;;13.30;99.90;;;;;;6199802;23;20319;-78
2022/10/07 07:01:11;;;;;;;;;;;13.40;99.90;;;;;;6187446;23;19921;-79
2022/10/07 07:03:38;;;;;;;;;;;13.50;99.90;;;;;;6187172;23;19944;-80
2022/10/07 07:06:06;;;;;;;;;;;13.60;99.90;;;;;;6226002;23;19995;-78
2022/10/07 07:08:34;;;;;;;;;;;13.70;99.90;;;;;;6188421;23;20003;-79
2022/10/07 07:11:01;;;;;;;;;;;13.90;99.90;;;;;;6188436;23;19987;-79
2022/10/07 07:13:28;;;;;;;;;;;14.00;99.90;;;;;;6188123;23;19920;-79
2022/10/07 07:15:58;;;;;;;;;;;14.10;99.90;;;;;;6207837;23;19920;-79
2022/10/07 07:18:25;;;;;;;;;;;14.30;99.90;;;;;;6194327;23;19920;-80
2022/10/07 07:20:52;;;;;;;;;;;14.50;99.90;;;;;;6186553;23;19920;-79
2022/10/07 07:23:19;;;;;;;;;;;14.70;99.90;;;;;;6187393;23;19920;-79
2022/10/07 07:25:45;;;;;;;;;;;14.90;99.90;;;;;;6191492;23;19939;-79
2022/10/07 07:28:13;;;;;;;;;;;15.00;99.90;;;;;;6224340;23;20345;-80
2022/10/07 07:30:41;;;;;;;;;;;15.20;99.90;;;;;;6206405;23;20355;-80
2022/10/07 07:33:08;;;;;;;;;;;15.50;99.90;;;;;;6203246;23;19927;-80
2022/10/07 07:35:36;;;;;;;;;;;15.70;99.90;;;;;;6203171;23;19928;-81
2022/10/07 07:38:02;;;;;;;;;;;15.80;99.90;;;;;;6225671;23;19927;-80
2022/10/07 07:40:29;;;;;;;;;;;16.00;99.70;;;;;;6207873;23;19936;-79
2022/10/07 07:42:56;;;;;;;;;;;16.20;99.00;;;;;;6220552;23;19935;-79
2022/10/07 07:45:23;;;;;;;;;;;16.40;98.50;;;;;;6212215;23;20257;-78
2022/10/07 07:47:50;;;;;;;;;;;16.60;97.50;;;;;;6191367;23;20012;-79
2022/10/07 07:50:19;;;;;;;;;;;16.80;96.90;;;;;;6189763;23;20337;-78
2022/10/07 07:52:46;;;;;;;;;;;17.00;96.30;;;;;;6186341;23;19939;-78
2022/10/07 07:55:13;;;;;;;;;;;17.20;95.70;;;;;;6211285;23;19964;-79
2022/10/07 07:57:41;;;;;;;;;;;17.50;95.60;;;;;;6189997;23;19927;-79
2022/10/07 08:00:10;;;;;;;;;;;17.60;95.10;;;;;;6208326;23;20304;-79
2022/10/07 08:02:37;;;;;;;;;;;17.80;94.60;;;;;;6208991;23;19939;-79
2022/10/07 08:05:05;;;;;;;;;;;18.00;94.20;;;;;;6221272;23;19924;-78
2022/10/07 08:07:34;;;;;;;;;;;18.20;93.80;;;;;;6196462;23;19954;-79
2022/10/07 08:10:01;;;;;;;;;;;18.30;92.90;;;;;;6189286;23;19927;-79
2022/10/07 08:12:27;;;;;;;;;;;18.50;92.70;;;;;;6189597;23;19921;-78
2022/10/07 08:14:54;;;;;;;;;;;18.60;92.30;;;;;;6188551;23;19983;-79
2022/10/07 08:17:21;;;;;;;;;;;18.80;92.10;;;;;;6192644;23;19951;-80
2022/10/07 08:19:47;;;;;;;;;;;19.00;91.10;;;;;;6192299;23;19920;-79
2022/10/07 08:22:16;;;;;;;;;;;19.10;90.40;;;;;;6211937;23;19954;-79
2022/10/07 08:24:43;;;;;;;;;;;19.20;90.10;;;;;;6193585;23;20268;-79
2022/10/07 08:27:10;;;;;;;;;;;19.40;89.80;;;;;;6189082;23;19920;-79
2022/10/07 08:29:36;;;;;;;;;;;19.40;87.20;;;;;;6190432;23;19947;-79
2022/10/07 08:32:03;;;;;;;;;;;19.60;88.20;;;;;;6214216;23;19920;-79
2022/10/07 08:34:30;;;;;;;;;;;19.70;85.60;;;;;;6189738;23;19968;-79
2022/10/07 08:36:57;;;;;;;;;;;19.90;85.70;;;;;;6188465;23;19987;-79
2022/10/07 08:39:25;;;;;;;;;;;20.00;84.80;;;;;;6211808;23;19920;-79
2022/10/07 08:42:00;;;;;;;;;;;20.20;81.30;;;;;;6189802;23;19920;-79
2022/10/07 08:44:37;;;;;;;;;;;20.20;79.30;;;;;;6185195;23;19991;-79
2022/10/07 08:47:15;;;;;;;;;;;20.20;71.80;;;;;;6197227;23;19960;-79
2022/10/07 08:50:01;;;;;;;;;;;20.40;72.90;;;;;;6186097;23;19920;-80
2022/10/07 08:52:33;;;;;;;;;;;20.60;70.80;;;;;;6186842;23;19921;-79
2022/10/07 08:55:00;;;;;;;;;;;20.80;70.70;;;;;;6185450;23;20113;-79
2022/10/07 08:57:53;;;;;;;;;;;21.00;72.10;;;;;;6187267;23;19928;-78
2022/10/07 09:00:21;;;;;;;;;;;21.00;70.10;;;;;;6164753;23;19984;-80
2022/10/07 09:03:06;;;;;;;;;;;21.10;70.80;;;;;;6191016;23;19921;-79
2022/10/07 09:05:37;;;;;;;;;;;21.20;69.10;;;;;;6203877;23;20356;-79
2022/10/07 09:08:27;;;;;;;;;;;21.30;66.90;;;;;;6190659;23;20281;-79
2022/10/07 09:10:55;;;;;;;;;;;21.30;68.50;;;;;;6188205;23;19956;-80
2022/10/07 09:13:26;;;;;;;;;;;21.60;68.90;;;;;;6189561;23;19921;-79
2022/10/07 09:15:59;;;;;;;;;;;21.80;66.30;;;;;;6190050;23;19904;-80
2022/10/07 09:18:46;;;;;;;;;;;21.80;67.20;;;;;;6189824;23;20302;-80
2022/10/07 09:21:27;;;;;;;;;;;21.90;67.30;;;;;;6177632;23;19939;-80
2022/10/07 09:23:55;;;;;;;;;;;22.00;68.20;;;;;;6193004;23;19932;-79
2022/10/07 09:26:24;;;;;;;;;;;22.00;66.50;;;;;;6189179;23;19927;-80
2022/10/07 09:28:50;;;;;;;;;;;21.90;66.70;;;;;;6202196;23;19920;-80
2022/10/07 09:31:17;;;;;;;;;;;22.00;67.60;;;;;;6188573;23;19991;-82
2022/10/07 09:33:45;;;;;;;;;;;22.10;67.30;;;;;;6189827;23;19920;-79
2022/10/07 09:36:17;;;;;;;;;;;22.30;65.80;;;;;;6189965;23;19920;-82
2022/10/07 09:38:45;;;;;;;;;;;22.20;66.00;;;;;;6193149;23;19931;-80
2022/10/07 09:41:14;;;;;;;;;;;22.20;65.00;;;;;;6188606;23;19987;-79
2022/10/07 09:43:53;;;;;;;;;;;22.40;66.50;;;;;;6213944;23;19943;-79
2022/10/07 09:46:32;;;;;;;;;;;22.60;65.50;;;;;;6204432;23;19950;-79
2022/10/07 09:49:03;;;;;;;;;;;22.80;65.70;;;;;;6192151;23;19920;-80
2022/10/07 09:51:31;;;;;;;;;;;22.70;63.40;;;;;;6210232;23;19929;-80
2022/10/07 09:54:01;;;;;;;;;;;22.50;64.10;;;;;;6193909;23;19999;-80
2022/10/07 09:56:36;;;;;;;;;;;22.70;63.60;;;;;;6188355;23;19962;-80
2022/10/07 09:59:11;;;;;;;;;;;22.90;63.60;;;;;;6202886;23;20360;-80
2022/10/07 10:01:40;;;;;;;;;;;22.80;62.00;;;;;;6188677;23;19939;-79
2022/10/07 10:04:17;;;;;;;;;;;22.90;62.00;;;;;;6189334;23;19920;-79
2022/10/07 10:06:49;;;;;;;;;;;23.00;60.50;;;;;;6188210;23;19930;-79
2022/10/07 10:09:20;;;;;;;;;;;23.20;62.10;;;;;;6189169;23;19960;-80
2022/10/07 10:12:11;;;;;;;;;;;23.30;60.20;;;;;;6188543;23;19920;-81
2022/10/07 10:14:49;;;;;;;;;;;23.30;58.10;;;;;;6186224;23;20055;-80
2022/10/07 10:17:25;;;;;;;;;;;23.30;59.00;;;;;;6208837;23;19920;-79
2022/10/07 10:19:52;;;;;;;;;;;23.10;60.50;;;;;;6208184;23;19926;-80
2022/10/07 10:22:30;;;;;;;;;;;23.20;60.90;;;;;;6188206;23;19927;-80
2022/10/07 10:28:10;;;;;;;;;;;23.50;57.70;;;;;;6111471;23;20394;-79
2022/10/07 10:30:40;;;;;;;;;;;23.40;57.60;;;;;;6124200;23;20293;-79
2022/10/07 10:33:06;;;;;;;;;;;23.60;58.90;;;;;;6154330;23;19920;-79
2022/10/07 10:35:44;;;;;;;;;;;23.70;57.60;;;;;;6207039;23;20003;-80
2022/10/07 10:38:31;;;;;;;;;;;23.90;58.10;;;;;;6183358;23;19995;-79
2022/10/07 10:41:01;;;;;;;;;;;23.90;54.80;;;;;;6199091;23;20355;-79
2022/10/07 10:43:28;;;;;;;;;;;24.10;54.40;;;;;;6192915;23;20306;-79
2022/10/07 10:45:54;;;;;;;;;;;24.10;55.00;;;;;;6182886;23;19995;-79
2022/10/07 10:48:21;;;;;;;;;;;24.20;54.30;;;;;;6184202;23;19921;-79
2022/10/07 10:51:07;;;;;;;;;;;24.20;53.90;;;;;;6182959;23;19998;-80
2022/10/07 10:53:39;;;;;;;;;;;24.30;52.80;;;;;;6183959;23;20350;-79
2022/10/07 10:56:13;;;;;;;;;;;24.60;49.50;;;;;;6195124;23;19994;-79
2022/10/07 10:58:51;;;;;;;;;;;24.50;48.40;;;;;;6184239;23;19944;-79
2022/10/07 11:01:26;;;;;;;;;;;24.60;49.30;;;;;;6196824;23;19971;-79
2022/10/07 11:04:03;;;;;;;;;;;24.50;48.40;;;;;;6221288;23;19920;-79
2022/10/07 11:06:31;;;;;;;;;;;24.60;48.80;;;;;;6196111;23;19990;-79
2022/10/07 11:08:59;;;;;;;;;;;24.70;47.80;;;;;;6184122;23;20341;-80
2022/10/07 11:11:26;;;;;;;;;;;24.70;48.00;;;;;;6182869;23;19928;-80
2022/10/07 11:13:56;;;;;;;;;;;24.90;49.50;;;;;;6183716;23;19931;-79
2022/10/07 11:16:43;;;;;;;;;;;24.90;49.50;;;;;;6195759;23;20341;-79
2022/10/07 11:19:22;;;;;;;;;;;24.90;46.80;;;;;;6181369;23;19921;-79
2022/10/07 11:21:50;;;;;;;;;;;25.00;49.40;;;;;;6193453;23;20242;-79
2022/10/07 11:24:26;;;;;;;;;;;25.10;48.70;;;;;;6187712;23;19921;-80
2022/10/07 11:26:56;;;;;;;;;;;25.10;48.00;;;;;;6216129;23;20292;-79
2022/10/07 11:29:38;;;;;;;;;;;25.30;48.50;;;;;;6185050;23;20261;-81
2022/10/07 11:32:21;;;;;;;;;;;25.50;48.00;;;;;;6182643;23;19924;-80
2022/10/07 11:35:03;;;;;;;;;;;25.40;46.80;;;;;;6181757;23;19959;-80
2022/10/07 11:37:30;;;;;;;;;;;25.50;47.30;;;;;;6211749;23;20321;-79
2022/10/07 11:39:57;;;;;;;;;;;25.50;46.50;;;;;;6202771;23;19920;-81
2022/10/07 11:42:27;;;;;;;;;;;25.50;46.00;;;;;;6202337;23;19931;-82
2022/10/07 11:44:54;;;;;;;;;;;25.40;47.10;;;;;;6221791;23;20381;-82
2022/10/07 11:47:23;;;;;;;;;;;25.20;47.80;;;;;;6183490;23;19927;-81
2022/10/07 11:50:01;;;;;;;;;;;25.00;47.10;;;;;;6181759;23;20003;-81
2022/10/07 11:52:30;;;;;;;;;;;25.00;47.60;;;;;;6184702;23;19920;-82
2022/10/07 11:55:05;;;;;;;;;;;25.30;49.10;;;;;;6201324;23;19923;-82
2022/10/07 11:57:34;;;;;;;;;;;25.30;45.40;;;;;;6190486;23;20368;-81
2022/10/07 12:00:03;;;;;;;;;;;25.20;46.40;;;;;;6184170;23;19926;-82
2022/10/07 12:02:29;;;;;;;;;;;25.20;47.10;;;;;;6184114;23;19987;-81
2022/10/07 12:05:01;;;;;;;;;;;25.30;47.90;;;;;;6184012;23;19920;-82
2022/10/07 12:07:31;;;;;;;;;;;25.40;47.20;;;;;;6184728;23;19927;-82
2022/10/07 12:10:06;;;;;;;;;;;25.50;45.90;;;;;;6196482;23;19920;-82
2022/10/07 12:12:43;;;;;;;;;;;25.30;44.40;;;;;;6184771;23;20257;-82
2022/10/07 12:15:25;;;;;;;;;;;25.40;46.30;;;;;;6196314;23;19968;-82
2022/10/07 12:18:03;;;;;;;;;;;25.50;44.70;;;;;;6183301;23;19924;-82
2022/10/07 12:20:34;;;;;;;;;;;25.50;44.80;;;;;;6206287;23;19920;-82
2022/10/07 12:23:16;;;;;;;;;;;25.40;45.80;;;;;;6185647;23;19920;-82
2022/10/07 12:26:09;;;;;;;;;;;25.50;45.50;;;;;;6184692;23;19926;-82
2022/10/07 12:28:44;;;;;;;;;;;25.70;43.60;;;;;;6161890;23;20293;-82
2022/10/07 12:31:11;;;;;;;;;;;25.60;44.20;;;;;;6185095;23;19920;-82
2022/10/07 12:33:44;;;;;;;;;;;25.80;43.70;;;;;;6196121;23;19927;-82
2022/10/07 12:36:20;;;;;;;;;;;25.70;42.00;;;;;;6184211;23;20345;-81
2022/10/07 12:39:08;;;;;;;;;;;25.70;43.20;;;;;;6196158;23;20257;-82
2022/10/07 12:41:35;;;;;;;;;;;25.80;43.40;;;;;;6177301;23;19925;-82
2022/10/07 12:44:18;;;;;;;;;;;25.90;42.00;;;;;;6183837;23;19924;-82
2022/10/07 12:47:03;;;;;;;;;;;26.00;43.90;;;;;;6187795;23;19999;-82
2022/10/07 12:49:36;;;;;;;;;;;26.00;42.10;;;;;;6188213;23;19944;-82
2022/10/07 12:52:05;;;;;;;;;;;25.60;41.30;;;;;;6193097;23;19942;-81
2022/10/07 12:54:35;;;;;;;;;;;25.70;41.80;;;;;;6182886;23;19951;-82
2022/10/07 12:57:09;;;;;;;;;;;25.70;42.30;;;;;;6183819;23;20278;-82
2022/10/07 12:59:47;;;;;;;;;;;25.70;42.70;;;;;;6182911;23;19936;-82
2022/10/07 13:02:33;;;;;;;;;;;25.80;42.40;;;;;;6183786;23;19991;-81
2022/10/07 13:05:05;;;;;;;;;;;26.00;43.00;;;;;;6195884;23;20306;-81
2022/10/07 13:07:58;;;;;;;;;;;25.90;42.10;;;;;;6183758;23;19920;-82
2022/10/07 13:10:28;;;;;;;;;;;25.90;39.90;;;;;;6195109;23;19924;-82
2022/10/07 13:12:57;;;;;;;;;;;25.80;41.30;;;;;;6183601;23;20308;-82
2022/10/07 13:15:30;;;;;;;;;;;25.70;40.60;;;;;;6183185;23;20352;-82
2022/10/07 13:17:56;;;;;;;;;;;25.60;42.30;;;;;;6184969;23;19920;-82
2022/10/07 13:20:23;;;;;;;;;;;25.80;43.40;;;;;;6182914;23;19928;-81
2022/10/07 13:22:50;;;;;;;;;;;25.90;43.50;;;;;;6183422;23;19920;-82
2022/10/07 13:25:20;;;;;;;;;;;26.10;42.60;;;;;;6182742;23;20256;-82
2022/10/07 13:27:55;;;;;;;;;;;26.20;39.00;;;;;;6183747;23;19920;-82
2022/10/07 13:30:31;;;;;;;;;;;25.80;38.20;;;;;;6182666;23;19975;-82
2022/10/07 13:33:27;;;;;;;;;;;25.60;39.40;;;;;;6207335;23;20337;-81
2022/10/07 13:36:12;;;;;;;;;;;25.70;40.30;;;;;;6170655;23;19931;-82
2022/10/07 13:38:39;;;;;;;;;;;25.50;40.60;;;;;;6214048;23;19924;-83
2022/10/07 13:41:11;;;;;;;;;;;25.60;40.80;;;;;;6214748;23;19991;-82
2022/10/07 13:43:38;;;;;;;;;;;25.50;39.10;;;;;;6185710;23;19920;-81
2022/10/07 13:46:07;;;;;;;;;;;25.70;40.90;;;;;;6203507;23;19954;-82
2022/10/07 13:48:37;;;;;;;;;;;25.60;39.70;;;;;;6186744;23;19924;-82
2022/10/07 13:51:13;;;;;;;;;;;25.50;39.70;;;;;;6183796;23;19956;-82
2022/10/07 13:53:40;;;;;;;;;;;25.40;41.50;;;;;;6184598;23;19926;-82
2022/10/07 13:56:07;;;;;;;;;;;25.60;42.40;;;;;;6183428;23;20341;-82
2022/10/07 13:58:35;;;;;;;;;;;25.50;41.00;;;;;;6182929;23;19925;-82
2022/10/07 14:01:03;;;;;;;;;;;25.50;41.20;;;;;;6183473;23;19951;-82
2022/10/07 14:03:30;;;;;;;;;;;25.70;41.90;;;;;;6196594;23;19920;-82
2022/10/07 14:05:57;;;;;;;;;;;25.30;41.70;;;;;;6201022;23;20329;-82
2022/10/07 14:08:28;;;;;;;;;;;25.20;42.00;;;;;;6202128;23;19966;-83
2022/10/07 14:10:58;;;;;;;;;;;25.50;42.40;;;;;;6182742;23;19942;-79
2022/10/07 14:13:27;;;;;;;;;;;25.50;41.80;;;;;;6182086;23;19924;-80
2022/10/07 14:15:55;;;;;;;;;;;25.70;41.30;;;;;;6201166;23;19947;-81
2022/10/07 14:18:23;;;;;;;;;;;25.70;41.60;;;;;;6189867;23;20412;-80
2022/10/07 14:20:51;;;;;;;;;;;25.60;41.00;;;;;;6181850;23;19995;-80
2022/10/07 14:23:21;;;;;;;;;;;25.60;40.30;;;;;;6184161;23;19920;-80
2022/10/07 14:25:54;;;;;;;;;;;25.60;40.30;;;;;;6183887;23;20305;-81
2022/10/07 14:28:24;;;;;;;;;;;25.50;40.50;;;;;;6207534;23;19947;-81
2022/10/07 14:37:00;;;;;;;;;;;24.90;41.50;;;;;;6187142;23;19921;-81
2022/10/07 14:39:37;;;;;;;;;;;24.80;41.50;;;;;;6184776;23;20349;-81
2022/10/07 14:42:13;;;;;;;;;;;24.60;41.60;;;;;;6197283;23;19924;-81
2022/10/07 14:44:43;;;;;;;;;;;24.60;42.40;;;;;;6184653;23;19927;-81
2022/10/07 14:47:14;;;;;;;;;;;24.60;42.10;;;;;;6184873;23;19921;-81
2022/10/07 14:49:41;;;;;;;;;;;24.60;42.80;;;;;;6196115;23;19995;-81
2022/10/07 14:52:23;;;;;;;;;;;24.60;42.60;;;;;;6184982;23;19954;-80
2022/10/07 14:54:50;;;;;;;;;;;24.50;42.60;;;;;;6183200;23;20359;-81
2022/10/07 14:57:17;;;;;;;;;;;24.60;42.20;;;;;;6183670;23;19992;-81
2022/10/07 14:59:46;;;;;;;;;;;24.50;42.50;;;;;;6196027;23;20015;-80
2022/10/07 15:02:13;;;;;;;;;;;24.50;42.80;;;;;;6184944;23;20304;-81
2022/10/07 15:04:40;;;;;;;;;;;24.50;42.90;;;;;;6183358;23;20252;-81
2022/10/07 15:07:08;;;;;;;;;;;24.50;43.40;;;;;;6183863;23;19920;-80
2022/10/07 15:09:35;;;;;;;;;;;24.50;43.00;;;;;;6184090;23;19927;-80
2022/10/07 15:12:01;;;;;;;;;;;24.50;43.30;;;;;;6183308;23;20305;-81
2022/10/07 15:14:28;;;;;;;;;;;24.60;43.40;;;;;;6206576;23;19984;-81
2022/10/07 15:16:55;;;;;;;;;;;24.60;43.20;;;;;;6186805;23;19920;-81
2022/10/07 15:19:22;;;;;;;;;;;24.60;43.90;;;;;;6183762;23;20338;-81
2022/10/07 15:21:48;;;;;;;;;;;24.70;43.90;;;;;;6183501;23;20353;-81
2022/10/07 15:24:15;;;;;;;;;;;24.80;44.10;;;;;;6203123;23;19920;-81
2022/10/07 15:26:42;;;;;;;;;;;24.90;44.00;;;;;;6188308;23;20004;-80
2022/10/07 15:29:08;;;;;;;;;;;24.80;43.20;;;;;;6183700;23;19999;-81
2022/10/07 15:31:36;;;;;;;;;;;24.90;43.70;;;;;;6185537;23;19956;-81
2022/10/07 15:34:05;;;;;;;;;;;25.00;42.70;;;;;;6184465;23;19947;-81
2022/10/07 15:36:32;;;;;;;;;;;25.00;42.40;;;;;;6184401;23;19992;-81
2022/10/07 15:39:00;;;;;;;;;;;25.00;42.20;;;;;;6184585;23;19999;-81
2022/10/07 15:41:29;;;;;;;;;;;24.90;41.30;;;;;;6184917;23;19925;-80
2022/10/07 15:43:57;;;;;;;;;;;25.00;41.80;;;;;;6186390;23;19971;-81
2022/10/07 15:46:24;;;;;;;;;;;25.00;42.40;;;;;;6192361;23;19948;-81
2022/10/07 15:48:55;;;;;;;;;;;25.00;42.50;;;;;;6182544;23;19924;-81
2022/10/07 15:51:22;;;;;;;;;;;24.80;42.10;;;;;;6182497;23;19921;-80
2022/10/07 15:53:49;;;;;;;;;;;24.70;41.80;;;;;;6182368;23;19924;-82
2022/10/07 15:56:16;;;;;;;;;;;24.50;42.20;;;;;;6201522;23;20389;-81
2022/10/07 15:58:43;;;;;;;;;;;24.30;43.00;;;;;;6187622;23;19947;-81
2022/10/07 16:01:11;;;;;;;;;;;24.30;43.00;;;;;;6183427;23;19951;-80
2022/10/07 16:03:39;;;;;;;;;;;24.40;43.40;;;;;;6185967;23;20294;-81
2022/10/07 16:06:07;;;;;;;;;;;24.40;43.70;;;;;;6181196;23;19944;-80
2022/10/07 16:08:34;;;;;;;;;;;24.50;43.80;;;;;;6182725;23;19931;-81
2022/10/07 16:11:02;;;;;;;;;;;24.40;44.20;;;;;;6181126;23;19995;-81
2022/10/07 16:13:29;;;;;;;;;;;24.40;44.80;;;;;;6180929;23;20260;-80
2022/10/07 16:15:57;;;;;;;;;;;24.30;45.10;;;;;;6180489;23;19943;-80
2022/10/07 16:18:24;;;;;;;;;;;24.30;44.80;;;;;;6182691;23;19931;-81
2022/10/07 16:20:50;;;;;;;;;;;24.20;45.20;;;;;;6196060;23;20242;-81
2022/10/07 16:23:17;;;;;;;;;;;24.10;45.40;;;;;;6186451;23;19925;-80
2022/10/07 16:25:44;;;;;;;;;;;24.00;47.10;;;;;;6189460;23;20020;-81
2022/10/07 16:30:56;;;;;;;;;;;23.80;47.30;;;;;;6190454;23;19991;-81
2022/10/07 16:33:23;;;;;;;;;;;23.70;47.70;;;;;;6182609;23;19924;-82
2022/10/07 16:35:49;;;;;;;;;;;23.60;48.80;;;;;;6182996;23;20313;-81
2022/10/07 16:38:16;;;;;;;;;;;23.40;50.00;;;;;;6187501;23;19943;-81
2022/10/07 16:40:50;;;;;;;;;;;23.20;51.00;;;;;;6185553;23;20326;-80
2022/10/07 16:43:16;;;;;;;;;;;23.10;51.50;;;;;;6198702;23;19995;-82
2022/10/07 16:45:43;;;;;;;;;;;22.90;52.70;;;;;;6188291;23;19940;-80
2022/10/07 16:48:11;;;;;;;;;;;22.80;52.80;;;;;;6188489;23;19924;-80
2022/10/07 16:50:37;;;;;;;;;;;22.60;53.80;;;;;;6213802;23;19936;-81
2022/10/07 16:53:04;;;;;;;;;;;22.50;54.10;;;;;;6190123;23;19999;-81
2022/10/07 16:55:32;;;;;;;;;;;22.30;55.20;;;;;;6230599;23;19927;-81
2022/10/07 16:57:59;;;;;;;;;;;21.90;56.30;;;;;;6190144;23;20367;-81
2022/10/07 17:00:26;;;;;;;;;;;21.90;56.90;;;;;;6193704;23;20234;-80
2022/10/07 17:02:53;;;;;;;;;;;21.80;57.00;;;;;;6192129;23;19920;-81
2022/10/07 17:05:19;;;;;;;;;;;21.60;57.20;;;;;;6194194;23;19944;-79
2022/10/07 17:07:47;;;;;;;;;;;21.60;58.50;;;;;;6193266;23;19987;-81
2022/10/07 17:10:14;;;;;;;;;;;21.50;58.70;;;;;;6183592;23;19952;-80
2022/10/07 17:12:42;;;;;;;;;;;21.40;59.20;;;;;;6184748;23;19944;-79